Latest Weather Observations for Richmond

IDN60801

Issued at 1:12 am EDT Sunday 16 December 2018 (issued every 10 minutes, with the page automatically refreshed every 10 minutes)

About weather observations | Map of weather stations | Latest weather observations for NSW | Other Formats
Station Details ID: 067105 Name: RICHMOND RAAF Lat: -33.60 Lon: 150.78 Height: 19.0 m
Data from the previous 72 hours. | See also: Recent months at Richmond
Date/Time
EDT
Temp
°C
App
Temp
°C
Dew
Point
°C
Rel
Hum
%
Delta-T
°C
Wind Press
QNH
hPa
Press
MSL
hPa
Rain since
9am
mm
Dir  Spd
km/h
Gust
km/h
Spd
kts
Gust
kts
16/01:00am 21.0 24.9 20.3 96 0.5 CALM 0 0 0 0 1006.0 1005.9 0.0
16/12:30am 20.4 24.1 19.9 97 0.3 CALM 0 0 0 0 1006.4 1006.3 0.0
16/12:00am 20.5 24.1 19.7 95 0.5 CALM 0 0 0 0 1006.5 1006.4 0.0
 
Date/Time
EDT
Temp
°C
App
Temp
°C
Dew
Point
°C
Rel
Hum
%
Delta-T
°C
Wind Press
QNH
hPa
Press
MSL
hPa
Rain since
9am
mm
Dir  Spd
km/h
Gust
km/h
Spd
kts
Gust
kts
15/11:30pm 20.7 24.3 19.7 94 0.6 CALM 0 0 0 0 1006.5 1006.4 0.0
15/11:00pm 21.0 24.2 19.7 92 0.8 S 2 7 1 4 1006.5 1006.4 0.0
15/10:30pm 21.4 23.0 19.9 91 1.0 SW 11 13 6 7 1006.5 1006.4 0.0
15/10:00pm 21.8 24.1 19.4 86 1.5 ENE 6 9 3 5 1006.5 1006.4 0.0
15/09:30pm 22.5 25.5 19.3 82 2.0 N 2 7 1 4 1006.2 1006.1 0.0
15/09:00pm 22.5 25.9 19.3 82 2.0 CALM 0 0 0 0 1006.0 1005.9 0.0
15/08:30pm 22.8 25.3 19.0 79 2.4 N 4 7 2 4 1005.7 1005.6 0.0
15/08:00pm 23.4 25.3 18.9 76 2.9 ENE 7 11 4 6 1005.7 1005.6 0.0
15/07:30pm 23.5 24.1 18.6 74 3.1 NE 13 17 7 9 1005.3 1005.2 0.0
15/07:00pm 23.9 24.1 18.5 72 3.4 E 15 28 8 15 1005.1 1005.0 0.0
15/06:30pm 24.4 25.5 18.1 68 4.0 W 9 15 5 8 1003.7 1003.6 0.0
15/06:00pm 23.7 24.5 18.1 71 3.5 NE 11 15 6 8 1004.0 1003.9 0.0
15/05:30pm 22.8 21.0 17.9 74 3.1 ENE 24 39 13 21 1004.2 1004.1 0.0
15/05:21pm 23.0 19.4 17.7 72 3.3 NE 33 52 18 28 1004.1 1004.0 0.0
15/05:16pm 23.2 18.9 17.9 72 3.3 ENE 37 52 20 28 1004.0 1003.9 0.0
15/05:03pm 28.2 27.4 19.2 58 5.8 NE 22 46 12 25 1002.7 1002.6 0.0
15/05:00pm 28.7 29.7 20.2 60 5.6 NNE 15 37 8 20 1002.9 1002.8 0.0
15/04:30pm 28.0 28.1 20.3 63 5.1 NE 20 37 11 20 1002.1 1002.0 0.0
15/04:00pm 31.7 31.3 17.2 42 9.3 N 15 22 8 12 1001.9 1001.8 0.0
15/03:30pm 32.6 32.0 17.6 40 9.6 N 17 26 9 14 1002.4 1002.3 0.0
15/03:00pm 32.1 31.9 16.8 40 9.7 N 13 19 7 10 1003.0 1002.9 0.0
15/02:30pm 31.6 31.2 17.1 41 9.2 NE 15 22 8 12 1003.3 1003.2 0.0
15/02:00pm 31.1 32.6 19.8 51 7.5 NE 11 28 6 15 1003.9 1003.8 0.0
15/01:30pm 30.4 32.4 20.0 53 6.9 NE 9 20 5 11 1004.3 1004.2 0.0
15/01:00pm 30.3 31.6 21.7 60 5.8 NE 17 26 9 14 1005.4 1005.3 0.0
15/12:30pm 29.0 30.4 20.4 59 5.7 NE 13 20 7 11 1005.6 1005.5 0.0
15/12:00pm 28.9 30.3 21.1 62 5.2 ENE 15 20 8 11 1006.1 1006.0 0.0
15/11:30am 27.3 29.9 20.4 66 4.5 NE 7 13 4 7 1006.6 1006.5 0.0
15/11:00am 26.8 30.4 21.3 72 3.7 SE 4 13 2 7 1007.3 1007.2 0.0
15/10:30am 25.4 28.6 20.6 75 3.1 NE 4 11 2 6 1007.3 1007.2 0.0
15/10:00am 25.1 28.3 21.2 79 2.6 NE 6 13 3 7 1007.3 1007.2 0.0
15/09:48am 25.4 28.6 21.7 80 2.5 ENE 7 13 4 7 1007.2 1007.1 0.0
15/09:30am 24.7 27.7 21.2 81 2.3 E 7 15 4 8 1007.2 1007.1 0.0
15/09:27am 24.6 27.9 21.5 83 2.1 E 6 15 3 8 1007.3 1007.2 0.0
15/09:01am 23.4 26.5 20.3 83 2.0 NE 4 9 2 5 1007.2 1007.1 0.0
15/09:00am 23.5 26.7 20.6 84 1.9 NE 4 9 2 5 1007.3 1007.2 27.0
15/08:30am 23.0 26.1 21.5 91 1.0 NE 7 11 4 6 1007.3 1007.2 27.0
15/08:00am 22.1 24.8 21.4 96 0.5 ENE 9 13 5 7 1007.1 1007.0 27.0
15/07:30am 21.6 26.0 21.4 99 0.1 CALM 0 0 0 0 1006.5 1006.4 27.0
15/07:00am 21.5 25.9 21.3 99 0.1 CALM 0 0 0 0 1005.7 1005.6 27.0
15/06:30am 21.4 25.7 21.2 99 0.1 CALM 0 0 0 0 1005.6 1005.5 27.0
15/06:00am 21.1 25.3 20.9 99 0.1 CALM 0 0 0 0 1005.1 1005.0 27.0
15/05:53am 21.1 25.3 20.9 99 0.1 CALM 0 0 0 0 1005.1 1005.0 27.0
15/05:41am 20.9 25.0 20.7 99 0.1 CALM 0 0 0 0 1005.0 1004.9 27.0
15/05:30am 21.0 25.1 20.8 99 0.1 CALM 0 0 0 0 1004.8 1004.7 27.0
15/05:02am 20.9 25.0 20.7 99 0.1 CALM 0 0 0 0 1004.6 1004.5 27.0
15/05:00am 20.9 25.0 20.7 99 0.1 CALM 0 0 0 0 1004.6 1004.5 27.0
15/04:30am 20.8 24.8 20.6 99 0.1 CALM 0 0 0 0 1004.2 1004.1 27.0
15/04:00am 20.8 23.7 20.6 99 0.1 ENE 6 7 3 4 1004.1 1004.0 27.0
15/03:30am 21.1 25.3 20.9 99 0.1 CALM 0 0 0 0 1004.2 1004.1 27.0
15/03:03am 21.2 25.4 21.0 99 0.1 CALM 0 0 0 0 1004.0 1003.9 27.0
15/03:00am 21.2 25.4 21.0 99 0.1 CALM 0 0 0 0 1004.0 1003.9 27.0
15/02:30am 21.2 25.4 21.0 99 0.1 CALM 0 0 0 0 1004.3 1004.2 27.0
15/02:00am 21.1 24.9 20.9 99 0.1 W 2 7 1 4 1004.4 1004.3 27.0
15/01:59am 21.1 24.9 20.9 99 0.1 WSW 2 7 1 4 1004.4 1004.3 27.0
15/01:30am 20.8 23.5 20.6 99 0.1 WSW 7 50 4 27 1004.3 1004.2 27.0
15/01:00am 21.1 24.1 20.9 99 0.1 SSE 6 7 3 4 1004.6 1004.5 27.0
15/12:48am 21.1 24.1 20.9 99 0.1 S 6 7 3 4 1004.8 1004.7 27.0
15/12:30am 21.2 24.1 21.0 99 0.1 SW 7 9 4 5 1004.8 1004.7 27.0
15/12:00am 21.2 25.4 21.0 99 0.1 CALM 0 0 0 0 1005.1 1005.0 27.0
 
Date/Time
EDT
Temp
°C
App
Temp
°C
Dew
Point
°C
Rel
Hum
%
Delta-T
°C
Wind Press
QNH
hPa
Press
MSL
hPa
Rain since
9am
mm
Dir  Spd
km/h
Gust
km/h
Spd
kts
Gust
kts
14/11:49pm 21.1 25.3 20.9 99 0.1 CALM 0 0 0 0 1004.9 1004.8 27.0
14/11:35pm 21.1 24.9 20.9 99 0.1 WSW 2 6 1 3 1004.9 1004.8 27.0
14/11:30pm 21.1 24.5 20.9 99 0.1 WSW 4 6 2 3 1005.0 1004.9 27.0
14/11:00pm 21.2 23.7 21.0 99 0.1 SW 9 11 5 6 1005.2 1005.1 27.0
14/10:30pm 21.4 24.6 21.2 99 0.1 SSW 6 9 3 5 1005.6 1005.5 27.0
14/10:00pm 21.5 24.7 21.2 98 0.2 S 6 9 3 5 1006.0 1005.9 27.0
14/09:52pm 21.5 24.5 21.2 98 0.2 SSE 7 9 4 5 1005.8 1005.7 27.0
14/09:30pm 21.7 24.9 21.2 97 0.3 SSE 6 9 3 5 1005.6 1005.5 27.0
14/09:00pm 21.8 24.7 21.1 96 0.5 S 7 11 4 6 1005.1 1005.0 27.0
14/08:30pm 21.9 24.0 20.9 94 0.7 SSE 11 13 6 7 1004.9 1004.8 27.0
14/08:00pm 21.9 23.6 20.9 94 0.7 SSE 13 17 7 9 1004.3 1004.2 27.0
14/07:30pm 22.0 24.1 21.0 94 0.7 SSE 11 15 6 8 1003.9 1003.8 27.0
14/07:27pm 22.1 24.3 21.1 94 0.7 SSE 11 19 6 10 1004.0 1003.9 27.0
14/07:06pm 22.6 24.1 21.2 92 0.9 SE 15 19 8 10 1003.8 1003.7 27.0
14/07:05pm 22.6 24.1 21.2 92 0.9 SE 15 19 8 10 1003.8 1003.7 27.0
14/07:00pm 22.8 24.7 21.3 91 1.0 SSE 13 17 7 9 1003.9 1003.8 27.0
14/06:30pm 22.9 25.5 21.9 94 0.7 SSE 11 17 6 9 1003.5 1003.4 27.0
14/06:00pm 22.3 24.9 22.0 98 0.2 SSE 11 15 6 8 1003.1 1003.0 27.0
14/05:42pm 22.2 25.3 21.5 96 0.5 SSE 7 11 4 6 1003.2 1003.1 27.0
14/05:30pm 22.5 25.9 22.0 97 0.3 SSE 7 11 4 6 1003.1 1003.0 27.0
14/05:00pm 22.0 24.9 21.0 94 0.7 ENE 7 9 4 5 1003.4 1003.3 26.4
14/04:30pm 22.4 24.9 20.3 88 1.4 E 7 11 4 6 1002.8 1002.7 25.8
14/04:00pm 24.2 27.5 22.5 90 1.1 NE 9 20 5 11 1002.8 1002.7 25.8
14/03:30pm 22.3 26.3 21.3 94 0.7 W 2 9 1 5 1002.3 1002.2 25.8
14/03:00pm 21.5 24.9 21.0 97 0.3 NNW 4 9 2 5 1002.9 1002.8 25.4
14/02:30pm 22.0 25.2 21.2 95 0.5 SE 6 9 3 5 1002.8 1002.7 18.0
14/02:00pm 22.6 26.0 20.9 90 1.1 SW 4 7 2 4 1003.0 1002.9 15.6
14/01:30pm 22.8 26.3 21.1 90 1.1 ENE 4 7 2 4 1003.2 1003.1 15.4
14/01:00pm 23.3 25.8 20.2 83 2.0 NW 7 11 4 6 1003.3 1003.2 15.0
14/12:30pm 22.7 25.8 21.5 93 0.8 ESE 7 13 4 7 1002.9 1002.8 15.0
14/12:00pm 21.2 23.3 21.0 99 0.1 S 11 13 6 7 1003.0 1002.9 15.0
14/11:30am 20.2 21.8 20.0 99 0.1 W 11 20 6 11 1004.4 1004.3 7.4
14/11:22am 20.4 22.5 20.2 99 0.1 WSW 9 13 5 7 1003.7 1003.6 5.6
14/11:00am 20.5 22.1 20.0 97 0.3 NW 11 19 6 10 1003.8 1003.7 3.8
14/10:30am 21.0 24.7 20.0 94 0.6 CALM 0 6 0 3 1003.0 1002.9 0.0
14/10:00am 21.2 24.1 19.8 92 0.9 NNE 4 9 2 5 1003.0 1002.9 0.0
14/09:30am 21.2 24.8 19.7 91 1.0 CALM 0 0 0 0 1003.0 1002.9 0.0
14/09:00am 21.2 23.5 19.8 92 0.9 W 7 11 4 6 1002.9 1002.8 14.8
14/08:30am 20.9 23.2 19.9 94 0.6 W 7 11 4 6 1002.5 1002.4 14.8
14/08:00am 20.3 23.5 19.8 97 0.3 WSW 2 7 1 4 1002.2 1002.1 14.8
14/07:30am 20.0 21.9 19.7 98 0.2 SE 9 13 5 7 1001.6 1001.5 14.8
14/07:00am 19.8 22.1 19.5 98 0.2 SE 6 7 3 4 1001.7 1001.6 14.8
14/06:30am 19.6 21.8 19.3 98 0.2 S 6 9 3 5 1001.7 1001.6 14.8
14/06:00am 19.6 21.9 19.4 99 0.1 SW 6 9 3 5 1001.1 1001.0 14.8
14/05:30am 19.5 21.5 19.2 98 0.2 SSW 7 9 4 5 1000.8 1000.7 14.8
14/05:00am 19.4 21.6 19.2 99 0.1 WNW 6 9 3 5 1000.8 1000.7 14.8
14/04:30am 19.3 21.5 19.1 99 0.1 WSW 6 9 3 5 1000.3 1000.2 14.8
14/04:00am 19.2 22.1 19.0 99 0.1 SSE 2 7 1 4 1000.1 1000.0 14.8
14/03:42am 19.1 21.5 18.9 99 0.1 S 4 7 2 4 1000.1 1000.0 14.8
14/03:30am 19.1 21.0 18.9 99 0.1 S 7 9 4 5 1000.1 1000.0 14.8
14/03:20am 19.2 21.7 19.0 99 0.1 WSW 4 9 2 5 1000.3 1000.2 14.8
14/03:08am 19.1 21.5 18.9 99 0.1 WSW 4 7 2 4 1000.7 1000.6 14.8
14/03:00am 19.0 21.0 18.8 99 0.1 WSW 6 7 3 4 1000.6 1000.5 14.8
14/02:30am 18.9 20.3 18.6 98 0.2 SW 9 13 5 7 1000.3 1000.2 14.8
14/02:00am 19.0 21.0 18.7 98 0.2 W 6 11 3 6 1000.7 1000.6 14.8
14/01:30am 18.8 20.2 18.6 99 0.1 SE 9 13 5 7 999.9 999.8 14.8
14/01:00am 19.0 20.8 18.8 99 0.1 SE 7 11 4 6 1000.2 1000.1 14.8
14/12:30am 18.9 22.0 18.7 99 0.1 CALM 0 0 0 0 1000.3 1000.2 14.8
14/12:00am 19.2 22.4 18.9 98 0.2 CALM 0 0 0 0 1000.5 1000.4 14.8
 
Date/Time
EDT
Temp
°C
App
Temp
°C
Dew
Point
°C
Rel
Hum
%
Delta-T
°C
Wind Press
QNH
hPa
Press
MSL
hPa
Rain since
9am
mm
Dir  Spd
km/h
Gust
km/h
Spd
kts
Gust
kts
13/11:30pm 19.4 21.4 19.2 99 0.1 SE 7 11 4 6 1001.1 1001.0 14.8
13/11:20pm 19.3 22.6 19.0 98 0.2 CALM 0 0 0 0 1001.1 1001.0 14.8
13/11:00pm 19.3 20.5 19.1 99 0.1 SSW 11 15 6 8 1000.8 1000.7 14.8
13/10:47pm 19.4 21.4 19.2 99 0.1 SW 7 9 4 5 1000.5 1000.4 14.8
13/10:30pm 19.4 21.6 19.2 99 0.1 NE 6 9 3 5 1000.4 1000.3 14.8
13/10:00pm 19.5 22.8 19.2 98 0.2 CALM 0 6 0 3 1001.2 1001.1 14.8
13/09:30pm 19.8 20.4 19.5 98 0.2 SW 15 20 8 11 1000.8 1000.7 14.8
13/09:00pm 19.7 21.5 19.5 99 0.1 SSW 9 17 5 9 1000.5 1000.4 14.8
13/08:45pm 19.8 19.7 19.6 99 0.1 SE 19 24 10 13 999.9 999.8 14.8
13/08:30pm 20.1 20.5 19.8 98 0.2 SSE 17 22 9 12 1000.1 1000.0 14.8
13/08:13pm 20.6 20.7 20.3 98 0.2 S 20 28 11 15 1000.1 1000.0 14.8
13/08:00pm 21.6 22.4 21.4 99 0.1 SSE 19 24 10 13 1000.2 1000.1 14.8
13/07:52pm 21.5 22.3 21.3 99 0.1 SSE 19 22 10 12 1000.1 1000.0 14.8
13/07:30pm 21.9 25.1 21.2 96 0.5 ENE 6 13 3 7 999.7 999.6 13.8
13/07:15pm 22.6 22.2 19.4 82 2.0 NNW 20 54 11 29 999.9 999.8 4.0
13/07:13pm 24.3 24.8 20.0 77 2.8 NW 17 46 9 25 999.5 999.4 1.4
13/07:00pm 26.7 28.9 19.3 64 4.8 NE 6 11 3 6 997.2 997.1 0.4
13/06:30pm 27.1 28.8 19.4 62 5.0 ENE 9 15 5 8 996.9 996.8 0.4
13/06:00pm 27.7 28.6 20.0 63 5.1 NE 15 22 8 12 997.2 997.1 0.4
13/05:30pm 28.2 28.6 20.7 63 5.0 ENE 19 24 10 13 996.6 996.5 0.4
13/05:00pm 27.7 28.0 20.8 66 4.6 ENE 20 32 11 17 996.7 996.6 0.4
13/04:30pm 28.7 28.5 22.0 67 4.5 NE 26 37 14 20 997.0 996.9 0.4
13/04:00pm 27.8 27.9 21.8 70 4.0 NE 24 33 13 18 997.4 997.3 0.4
13/03:30pm 26.8 27.1 21.6 73 3.5 NE 22 35 12 19 998.0 997.9 0.4
13/03:09pm 29.8 27.6 19.5 54 6.7 NE 30 48 16 26 997.9 997.8 0.2
13/03:00pm 30.1 27.9 19.5 53 7.0 NE 30 39 16 21 998.1 998.0 0.2
13/02:30pm 31.1 31.5 20.7 54 6.9 NE 19 30 10 16 998.5 998.4 0.2
13/02:00pm 30.4 31.6 20.6 55 6.5 NE 15 28 8 15 999.3 999.2 0.2
13/01:30pm 30.0 29.9 20.0 55 6.6 ENE 20 30 11 16 999.7 999.6 0.2
13/01:00pm 29.4 29.3 20.0 57 6.2 ENE 20 30 11 16 1000.0 999.9 0.2
13/12:30pm 27.8 27.6 19.8 61 5.2 NE 20 30 11 16 1001.6 1001.5 0.2
13/12:00pm 28.5 29.8 20.8 63 5.1 NE 15 28 8 15 1001.8 1001.7 0.2
13/11:30am 26.3 27.0 19.7 67 4.3 NE 15 22 8 12 1002.0 1001.9 0.2
13/11:00am 24.6 25.4 19.9 75 3.1 NNE 15 20 8 11 1002.4 1002.3 0.0
13/10:30am 23.4 24.7 20.2 82 2.1 NNE 13 19 7 10 1003.0 1002.9 0.0
13/10:00am 22.7 24.5 19.5 82 2.1 N 9 13 5 7 1003.5 1003.4 0.0
13/09:30am 22.1 22.9 19.1 83 1.9 N 13 17 7 9 1004.0 1003.9 0.0
13/09:00am 22.0 22.8 19.9 88 1.4 NNE 15 19 8 10 1004.2 1004.1 1.4
13/08:30am 21.3 21.5 19.4 89 1.2 NNE 17 22 9 12 1004.3 1004.2 1.4
13/08:00am 20.7 21.0 19.7 94 0.6 NE 17 22 9 12 1004.4 1004.3 1.4
13/07:30am 20.4 20.7 19.7 96 0.4 NE 17 22 9 12 1004.2 1004.1 1.4
13/07:00am 20.0 21.5 19.8 99 0.1 ENE 11 15 6 8 1004.5 1004.4 1.4
13/06:30am 19.5 20.4 19.3 99 0.1 NE 13 17 7 9 1004.1 1004.0 1.4
13/06:00am 19.2 20.0 19.0 99 0.1 NNE 13 17 7 9 1004.1 1004.0 1.4
13/05:30am 19.0 19.7 18.8 99 0.1 N 13 15 7 8 1004.4 1004.3 1.4
13/05:00am 19.4 21.0 19.2 99 0.1 NNE 9 13 5 7 1004.6 1004.5 1.4
13/04:30am 19.4 21.0 19.2 99 0.1 E 9 13 5 7 1004.7 1004.6 1.4
13/04:00am 19.4 20.7 19.2 99 0.1 NE 11 15 6 8 1006.0 1005.9 1.4
13/03:30am 19.5 22.5 19.3 99 0.1 NNE 2 7 1 4 1006.8 1006.7 1.4
13/03:00am 19.5 22.9 19.3 99 0.1 CALM 0 0 0 0 1007.3 1007.2 1.0
13/02:30am 19.6 21.3 19.4 99 0.1 WNW 9 11 5 6 1007.8 1007.7 1.0
13/02:00am 19.7 23.2 19.5 99 0.1 CALM 0 0 0 0 1007.7 1007.6 1.0
13/01:30am 19.6 23.0 19.4 99 0.1 CALM 0 0 0 0 1007.9 1007.8 1.0

Other Formats:

Comma delimited format used in spreadsheet applications
http://www.bom.gov.au/fwo/IDN60801/IDN60801.95753.axf

JavaScript Object Notation format (JSON) in row-major order
http://www.bom.gov.au/fwo/IDN60801/IDN60801.95753.json